createdAt,value
2022-10-11T00:00:21.019Z,0.00
2022-10-11T00:02:48.651Z,0.00
2022-10-11T00:05:16.013Z,0.00
2022-10-11T00:07:43.543Z,0.00
2022-10-11T00:10:11.353Z,0.00
2022-10-11T00:12:39.232Z,0.00
2022-10-11T00:15:07.669Z,0.20
2022-10-11T00:17:36.613Z,0.00
2022-10-11T00:20:04.710Z,0.00
2022-10-11T00:22:32.810Z,0.20
2022-10-11T00:25:00.310Z,0.00
2022-10-11T00:27:28.174Z,0.00
2022-10-11T00:29:56.521Z,0.00
2022-10-11T00:32:24.009Z,0.00
2022-10-11T00:34:51.754Z,0.00
2022-10-11T00:37:20.393Z,0.00
2022-10-11T00:39:47.843Z,0.00
2022-10-11T00:42:17.400Z,0.00
2022-10-11T00:44:47.537Z,1.00
2022-10-11T00:47:24.679Z,0.00
2022-10-11T00:49:59.489Z,0.00
2022-10-11T00:52:31.769Z,0.00
2022-10-11T00:55:08.471Z,0.00
2022-10-11T00:57:40.239Z,0.00
2022-10-11T01:00:10.882Z,0.40
2022-10-11T01:02:39.433Z,0.00
2022-10-11T01:05:28.174Z,0.00
2022-10-11T01:08:00.505Z,0.00
2022-10-11T01:10:29.169Z,0.20
2022-10-11T01:13:14.955Z,1.00
2022-10-11T01:16:04.175Z,1.00
2022-10-11T01:18:50.679Z,0.00
2022-10-11T01:21:27.170Z,0.40
2022-10-11T01:24:09.582Z,0.00
2022-10-11T01:26:42.711Z,0.00
2022-10-11T01:29:42.046Z,0.00
2022-10-11T01:32:34.215Z,0.00
2022-10-11T01:35:27.217Z,0.00
2022-10-11T01:37:59.763Z,0.00
2022-10-11T01:40:36.340Z,0.00
2022-10-11T01:43:05.391Z,0.40
2022-10-11T01:45:34.991Z,0.00
2022-10-11T01:48:08.983Z,0.00
2022-10-11T01:50:49.401Z,0.20
2022-10-11T01:53:44.317Z,0.80
2022-10-11T01:56:23.171Z,0.80
2022-10-11T01:59:00.415Z,0.80
2022-10-11T02:01:48.605Z,0.20
2022-10-11T02:04:37.665Z,0.60
2022-10-11T02:07:23.129Z,0.00
2022-10-11T02:10:06.021Z,0.00
2022-10-11T02:12:40.341Z,0.40
2022-10-11T02:15:11.098Z,0.00
2022-10-11T02:17:47.992Z,0.00
2022-10-11T02:20:20.681Z,1.00
2022-10-11T02:22:53.127Z,0.80
2022-10-11T02:25:25.962Z,0.00
2022-10-11T02:27:57.231Z,0.00
2022-10-11T02:30:24.693Z,0.40
2022-10-11T02:32:53.227Z,0.20
2022-10-11T02:35:24.721Z,1.00
2022-10-11T02:38:24.869Z,0.60
2022-10-11T02:41:01.561Z,1.00
2022-10-11T02:43:39.009Z,0.00
2022-10-11T02:46:08.834Z,1.00
2022-10-11T02:48:37.708Z,0.00
2022-10-11T02:51:05.709Z,0.60
2022-10-11T02:53:33.886Z,0.80
2022-10-11T02:56:01.181Z,1.00
2022-10-11T02:58:28.781Z,0.20
2022-10-11T03:00:56.421Z,0.40
2022-10-11T03:03:23.816Z,0.00
2022-10-11T03:05:51.112Z,1.00
2022-10-11T03:08:18.472Z,0.00
2022-10-11T03:10:45.838Z,0.20
2022-10-11T03:13:17.905Z,0.00
2022-10-11T03:16:00.716Z,0.00
2022-10-11T03:18:31.329Z,0.20
2022-10-11T03:20:59.090Z,0.00
2022-10-11T03:23:26.537Z,0.00
2022-10-11T03:25:54.052Z,0.20
2022-10-11T03:28:21.810Z,1.00
2022-10-11T03:30:50.397Z,0.60
2022-10-11T03:33:18.298Z,1.00
2022-10-11T03:35:46.989Z,1.00
2022-10-11T03:38:16.731Z,0.00
2022-10-11T03:40:44.735Z,0.40
2022-10-11T03:43:12.218Z,0.00
2022-10-11T03:45:42.505Z,1.00
2022-10-11T03:48:10.738Z,1.00
2022-10-11T03:50:39.288Z,1.00
2022-10-11T03:53:07.934Z,1.00
2022-10-11T03:55:35.694Z,1.00
2022-10-11T03:58:03.393Z,2.00
2022-10-11T04:00:31.121Z,0.00
2022-10-11T04:02:59.449Z,0.00
2022-10-11T04:05:26.874Z,1.00
2022-10-11T04:07:54.407Z,1.00
2022-10-11T04:10:22.145Z,1.00
2022-10-11T04:12:49.640Z,1.00
2022-10-11T04:15:17.258Z,0.00
2022-10-11T04:17:44.717Z,1.00
2022-10-11T04:20:12.445Z,0.00
2022-10-11T04:22:40.104Z,1.00
2022-10-11T04:25:09.283Z,0.80
2022-10-11T04:27:36.815Z,1.00
2022-10-11T04:30:05.263Z,1.00
2022-10-11T04:32:32.636Z,0.00
2022-10-11T04:34:59.874Z,0.80
2022-10-11T04:37:27.256Z,0.00
2022-10-11T04:39:56.331Z,0.40
2022-10-11T04:42:24.016Z,1.00
2022-10-11T04:44:51.533Z,0.80
2022-10-11T04:47:19.930Z,0.80
2022-10-11T04:49:47.476Z,0.00
2022-10-11T04:52:15.015Z,0.00
2022-10-11T04:54:42.556Z,0.80
2022-10-11T04:57:10.190Z,0.40
2022-10-11T04:59:37.643Z,0.80
2022-10-11T05:02:05.273Z,2.00
2022-10-11T05:04:33.289Z,3.20
2022-10-11T05:07:00.742Z,0.20
2022-10-11T05:09:28.276Z,1.00
2022-10-11T05:11:55.916Z,1.00
2022-10-11T05:14:23.384Z,2.00
2022-10-11T05:16:51.005Z,0.80
2022-10-11T05:19:18.585Z,1.00
2022-10-11T05:21:46.202Z,0.40
2022-10-11T05:24:13.743Z,1.00
2022-10-11T05:26:41.341Z,2.00
2022-10-11T05:29:08.840Z,0.00
2022-10-11T05:31:36.396Z,1.00
2022-10-11T05:34:04.138Z,1.00
2022-10-11T05:36:31.743Z,0.00
2022-10-11T05:38:59.264Z,1.00
2022-10-11T05:41:26.798Z,1.00
2022-10-11T05:43:54.361Z,4.40
2022-10-11T05:46:22.528Z,1.40
2022-10-11T05:48:50.158Z,1.00
2022-10-11T05:51:17.598Z,1.00
2022-10-11T05:53:45.214Z,0.40
2022-10-11T05:56:21.552Z,1.00
2022-10-11T05:58:49.297Z,1.00
2022-10-11T06:01:20.507Z,0.00
2022-10-11T06:03:48.812Z,1.00
2022-10-11T06:06:16.731Z,0.20
2022-10-11T06:08:44.788Z,1.00
2022-10-11T06:11:22.782Z,1.80
2022-10-11T06:13:50.501Z,0.80
2022-10-11T06:16:18.120Z,1.00
2022-10-11T06:18:47.549Z,1.00
2022-10-11T06:21:15.861Z,1.00
2022-10-11T06:23:43.643Z,0.60
2022-10-11T06:26:11.255Z,1.40
2022-10-11T06:28:38.743Z,1.80
2022-10-11T06:31:07.148Z,0.80
2022-10-11T06:33:38.055Z,1.00
2022-10-11T06:36:12.824Z,0.00
2022-10-11T06:38:44.776Z,1.00
2022-10-11T06:41:25.397Z,1.00
2022-10-11T06:43:53.239Z,0.00
2022-10-11T06:46:22.575Z,1.00
2022-10-11T06:48:50.980Z,0.00
2022-10-11T06:51:21.151Z,1.60
2022-10-11T06:53:53.941Z,1.00
2022-10-11T06:56:22.214Z,1.80
2022-10-11T06:58:51.376Z,1.00
2022-10-11T07:01:21.721Z,1.00
2022-10-11T07:03:50.781Z,1.20
2022-10-11T07:06:20.763Z,1.60
2022-10-11T07:08:48.933Z,0.60
2022-10-11T07:11:27.421Z,1.00
2022-10-11T07:13:58.399Z,0.80
2022-10-11T07:16:26.652Z,1.00
2022-10-11T07:19:02.062Z,2.00
2022-10-11T07:21:30.900Z,2.00
2022-10-11T07:23:58.573Z,0.60
2022-10-11T07:26:26.201Z,1.00
2022-10-11T07:28:53.836Z,2.40
2022-10-11T07:31:24.302Z,2.00
2022-10-11T07:33:52.126Z,1.00
2022-10-11T07:36:21.757Z,2.40
2022-10-11T07:38:50.630Z,1.00
2022-10-11T07:41:19.050Z,2.00
2022-10-11T07:43:48.245Z,2.00
2022-10-11T07:46:16.959Z,1.40
2022-10-11T07:48:44.451Z,2.80
2022-10-11T07:51:17.443Z,1.00
2022-10-11T07:53:56.535Z,2.60
2022-10-11T07:56:28.564Z,2.20
2022-10-11T07:59:01.926Z,2.00
2022-10-11T08:01:30.352Z,1.00
2022-10-11T08:03:58.844Z,1.00
2022-10-11T08:06:30.782Z,2.00
2022-10-11T08:08:58.939Z,3.00
2022-10-11T08:11:32.348Z,2.00
2022-10-11T08:14:01.654Z,2.60
2022-10-11T08:16:30.290Z,1.00
2022-10-11T08:18:58.408Z,1.00
2022-10-11T08:21:27.055Z,3.80
2022-10-11T08:23:54.985Z,2.00
2022-10-11T08:26:23.433Z,2.00
2022-10-11T08:28:51.126Z,2.60
2022-10-11T08:31:19.038Z,1.80
2022-10-11T08:33:46.449Z,2.20
2022-10-11T08:36:14.220Z,1.60
2022-10-11T08:38:42.300Z,0.00
2022-10-11T08:41:40.571Z,1.00
2022-10-11T08:44:52.162Z,0.00
2022-10-11T08:47:28.660Z,3.00
2022-10-11T08:49:57.783Z,2.00
2022-10-11T08:52:49.796Z,3.00
2022-10-11T08:55:41.620Z,3.00
2022-10-11T08:58:14.346Z,3.60
2022-10-11T09:00:43.017Z,3.00
2022-10-11T09:03:37.287Z,3.40
2022-10-11T09:06:26.170Z,3.00
2022-10-11T09:09:24.429Z,2.80
2022-10-11T09:12:14.324Z,5.40
2022-10-11T09:14:44.683Z,5.00
2022-10-11T09:17:33.111Z,6.00
2022-10-11T09:20:36.668Z,4.20
2022-10-11T09:23:31.473Z,2.40
2022-10-11T09:26:21.586Z,1.00
2022-10-11T09:29:31.494Z,4.20
2022-10-11T09:31:59.828Z,2.60
2022-10-11T09:34:32.679Z,3.20
2022-10-11T09:37:25.241Z,4.60
2022-10-11T09:40:12.931Z,2.60
2022-10-11T09:42:40.688Z,4.00
2022-10-11T09:45:20.716Z,3.20
2022-10-11T09:47:50.577Z,3.00
2022-10-11T09:50:26.166Z,3.00
2022-10-11T09:53:00.251Z,4.20
2022-10-11T09:55:39.324Z,4.20
2022-10-11T09:58:23.434Z,4.00
2022-10-11T10:01:09.481Z,3.00
2022-10-11T10:03:42.980Z,3.60
2022-10-11T10:06:32.522Z,4.60
2022-10-11T10:09:19.967Z,3.60
2022-10-11T10:11:47.731Z,5.20
2022-10-11T10:14:27.320Z,4.00
2022-10-11T10:17:16.074Z,4.60
2022-10-11T10:19:52.083Z,4.20
2022-10-11T10:22:23.159Z,3.60
2022-10-11T10:24:52.518Z,3.40
2022-10-11T10:27:27.065Z,4.00
2022-10-11T10:30:09.574Z,4.00
2022-10-11T10:33:00.403Z,2.20
2022-10-11T10:35:32.858Z,4.00
2022-10-11T10:38:28.334Z,3.40
2022-10-11T10:41:09.521Z,3.80
2022-10-11T10:43:40.334Z,3.60
2022-10-11T10:46:20.077Z,4.00
2022-10-11T10:49:34.543Z,4.25
2022-10-11T10:52:03.427Z,0.25
2022-10-11T10:54:44.938Z,5.00
2022-10-11T10:57:37.442Z,5.00
2022-10-11T11:00:21.962Z,5.75
2022-10-11T11:03:01.319Z,5.00
2022-10-11T11:05:48.576Z,4.50
2022-10-11T11:08:38.045Z,5.00
2022-10-11T11:11:30.281Z,5.25
2022-10-11T11:14:18.810Z,4.00
2022-10-11T11:17:06.745Z,5.00
2022-10-11T11:19:56.041Z,5.00
2022-10-11T11:22:44.012Z,4.50
2022-10-11T11:25:30.301Z,4.00
2022-10-11T11:28:28.953Z,25.20
2022-10-11T11:31:27.477Z,5.25
2022-10-11T11:34:37.350Z,2.00
2022-10-11T11:37:26.564Z,4.50
2022-10-11T11:40:05.057Z,4.00
2022-10-11T11:42:54.913Z,3.50
2022-10-11T11:45:28.354Z,3.00
2022-10-11T11:48:07.070Z,2.00
2022-10-11T11:50:40.600Z,2.00
2022-10-11T11:53:15.933Z,1.75
2022-10-11T11:56:31.855Z,1.25
2022-10-11T11:59:15.777Z,2.00
2022-10-11T12:01:52.441Z,1.00
2022-10-11T12:04:23.821Z,1.50
2022-10-11T12:07:17.265Z,1.00
2022-10-11T12:09:52.034Z,1.00
2022-10-11T12:12:34.971Z,1.00
2022-10-11T12:15:26.281Z,0.50
2022-10-11T12:17:53.780Z,0.00
2022-10-11T12:20:24.119Z,0.25
2022-10-11T12:22:58.641Z,0.00
2022-10-11T12:25:29.235Z,0.00
2022-10-11T12:28:20.422Z,0.00
2022-10-11T12:30:56.639Z,0.00
2022-10-11T12:33:45.861Z,0.00
2022-10-11T12:36:29.816Z,0.75
2022-10-11T12:39:22.807Z,0.00
2022-10-11T12:41:53.953Z,0.00
2022-10-11T12:44:28.802Z,0.00
2022-10-11T12:46:59.274Z,0.00
2022-10-11T12:49:52.497Z,0.00
2022-10-11T12:52:54.734Z,0.00
2022-10-11T12:55:57.434Z,0.00
2022-10-11T12:58:27.994Z,0.00
2022-10-11T13:00:56.383Z,0.00
2022-10-11T13:03:50.974Z,0.00
2022-10-11T13:06:28.269Z,0.00
2022-10-11T13:08:57.557Z,0.00
2022-10-11T13:11:33.450Z,0.00
2022-10-11T13:14:26.092Z,0.00
2022-10-11T13:17:20.236Z,0.00
2022-10-11T13:19:59.679Z,0.00
2022-10-11T13:22:27.874Z,0.00
2022-10-11T13:24:58.491Z,0.00
2022-10-11T13:27:28.251Z,0.00
2022-10-11T13:30:01.881Z,0.00
2022-10-11T13:32:31.908Z,0.00
2022-10-11T13:35:04.444Z,0.00
2022-10-11T13:37:42.933Z,0.00
2022-10-11T13:40:16.075Z,0.00
2022-10-11T13:42:45.256Z,0.00
2022-10-11T13:45:19.683Z,0.00
2022-10-11T13:47:49.513Z,0.00
2022-10-11T13:50:34.753Z,0.00
2022-10-11T13:53:05.359Z,0.00
2022-10-11T13:56:12.982Z,0.75
2022-10-11T13:58:46.717Z,0.00
2022-10-11T14:01:35.206Z,0.00
2022-10-11T14:04:09.561Z,0.00
2022-10-11T14:06:56.962Z,0.00
2022-10-11T14:09:35.733Z,0.00
2022-10-11T14:12:43.656Z,0.00
2022-10-11T14:15:31.854Z,0.00
2022-10-11T14:18:01.554Z,0.00
2022-10-11T14:20:38.801Z,0.00
2022-10-11T14:23:07.254Z,0.00
2022-10-11T14:25:35.368Z,0.00
2022-10-11T14:28:06.195Z,0.00
2022-10-11T14:34:02.294Z,0.00
2022-10-11T14:36:30.575Z,0.00
2022-10-11T14:38:58.584Z,0.00
2022-10-11T14:41:27.568Z,0.00
2022-10-11T14:43:56.729Z,0.00
2022-10-11T14:46:27.391Z,0.00
2022-10-11T14:48:56.713Z,0.00
2022-10-11T14:51:35.200Z,0.00
2022-10-11T14:54:03.411Z,0.00
2022-10-11T14:56:31.348Z,0.00
2022-10-11T15:02:06.087Z,0.00
2022-10-11T15:04:33.954Z,0.00
2022-10-11T15:07:02.083Z,0.00
2022-10-11T15:12:53.844Z,0.00
2022-10-11T15:15:35.974Z,0.00
2022-10-11T15:21:32.198Z,0.00
2022-10-11T15:24:08.852Z,0.00
2022-10-11T15:26:38.377Z,0.00
2022-10-11T15:29:07.413Z,0.00
2022-10-11T15:31:34.942Z,0.00
2022-10-11T15:34:02.497Z,0.00
2022-10-11T15:36:30.240Z,0.00
2022-10-11T15:39:01.238Z,0.00
2022-10-11T15:41:39.047Z,0.00
2022-10-11T15:44:08.172Z,0.00
2022-10-11T15:46:36.340Z,0.00
2022-10-11T15:49:22.629Z,0.00
2022-10-11T15:52:02.229Z,0.00
2022-10-11T15:54:30.650Z,0.00
2022-10-11T15:57:03.465Z,0.00
2022-10-11T15:59:42.000Z,0.00
2022-10-11T16:02:16.472Z,0.00
2022-10-11T16:04:49.657Z,0.00
2022-10-11T16:07:18.276Z,0.00
2022-10-11T16:09:45.897Z,0.00
2022-10-11T16:12:13.544Z,0.00
2022-10-11T16:14:46.284Z,0.00
2022-10-11T16:17:28.564Z,0.00
2022-10-11T16:19:58.512Z,0.00
2022-10-11T16:22:27.253Z,1.00
2022-10-11T16:24:54.915Z,0.00
2022-10-11T16:27:23.478Z,0.00
2022-10-11T16:29:56.202Z,0.00
2022-10-11T16:32:31.277Z,0.00
2022-10-11T16:34:59.180Z,0.00
2022-10-11T16:37:28.711Z,1.20
2022-10-11T16:40:06.961Z,0.00
2022-10-11T16:42:51.390Z,0.00
2022-10-11T16:45:24.597Z,0.00
2022-10-11T16:47:55.989Z,0.00
2022-10-11T16:50:23.971Z,0.00
2022-10-11T16:52:55.482Z,0.00
2022-10-11T16:55:24.802Z,0.00
2022-10-11T16:57:52.544Z,0.00
2022-10-11T17:00:22.310Z,0.00
2022-10-11T17:02:52.571Z,0.00
2022-10-11T17:05:21.077Z,0.00
2022-10-11T17:07:48.796Z,0.00
2022-10-11T17:10:16.625Z,0.00
2022-10-11T17:12:47.823Z,0.00
2022-10-11T17:15:18.052Z,0.00
2022-10-11T17:17:45.692Z,0.00
2022-10-11T17:20:13.326Z,0.00
2022-10-11T17:22:40.767Z,0.00
2022-10-11T17:25:08.782Z,0.00
2022-10-11T17:27:36.426Z,0.00
2022-10-11T17:30:04.914Z,0.00
2022-10-11T17:32:32.622Z,0.60
2022-10-11T17:35:02.375Z,0.00
2022-10-11T17:37:30.042Z,0.00
2022-10-11T17:39:57.784Z,0.20
2022-10-11T17:42:25.279Z,0.00
2022-10-11T17:44:52.858Z,0.00
2022-10-11T17:47:20.363Z,1.00
2022-10-11T17:49:47.880Z,0.00
2022-10-11T17:52:15.542Z,0.20
2022-10-11T17:54:43.179Z,0.20
2022-10-11T17:57:12.173Z,0.00
2022-10-11T17:59:40.004Z,0.00
2022-10-11T18:02:07.898Z,0.00
2022-10-11T18:04:35.845Z,0.20
2022-10-11T18:07:03.596Z,0.00
2022-10-11T18:09:33.655Z,0.00
2022-10-11T18:12:01.419Z,1.00
2022-10-11T18:14:29.121Z,1.00
2022-10-11T18:16:57.158Z,1.00
2022-10-11T18:19:24.638Z,0.40
2022-10-11T18:21:52.154Z,0.80
2022-10-11T18:24:19.737Z,1.00
2022-10-11T18:26:49.920Z,0.00
2022-10-11T18:29:17.594Z,0.80
2022-10-11T18:31:45.339Z,0.60
2022-10-11T18:34:14.386Z,0.00
2022-10-11T18:36:42.251Z,0.00
2022-10-11T18:39:13.602Z,0.00
2022-10-11T18:41:44.687Z,0.00
2022-10-11T18:44:14.669Z,0.60
2022-10-11T18:46:42.616Z,0.00
2022-10-11T18:49:10.153Z,0.00
2022-10-11T18:51:40.258Z,0.00
2022-10-11T18:54:09.872Z,0.00
2022-10-11T18:56:38.885Z,0.00
2022-10-11T18:59:10.474Z,0.00
2022-10-11T19:01:54.274Z,0.00
2022-10-11T19:04:23.029Z,0.00
2022-10-11T19:06:54.452Z,1.00
2022-10-11T19:09:27.419Z,0.00
2022-10-11T19:12:10.409Z,0.20
2022-10-11T19:14:40.606Z,0.00
2022-10-11T19:17:08.737Z,0.80
2022-10-11T19:19:52.940Z,0.00
2022-10-11T19:22:21.154Z,0.00
2022-10-11T19:24:49.644Z,1.00
2022-10-11T19:27:17.988Z,0.00
2022-10-11T19:29:45.909Z,1.00
2022-10-11T19:32:17.282Z,0.00
2022-10-11T19:34:48.313Z,0.80
2022-10-11T19:37:17.454Z,0.00
2022-10-11T19:39:46.259Z,0.00
2022-10-11T19:42:14.776Z,0.00
2022-10-11T19:44:48.837Z,0.80
2022-10-11T19:47:16.778Z,0.00
2022-10-11T19:49:49.334Z,0.40
2022-10-11T19:52:23.727Z,0.40
2022-10-11T19:54:52.131Z,0.40
2022-10-11T19:57:21.276Z,0.20
2022-10-11T19:59:49.327Z,0.00
2022-10-11T20:02:17.211Z,0.00
2022-10-11T20:04:52.340Z,0.00
2022-10-11T20:07:20.642Z,0.00
2022-10-11T20:09:48.372Z,0.60
2022-10-11T20:12:19.171Z,1.00
2022-10-11T20:14:46.634Z,0.00
2022-10-11T20:17:14.415Z,0.00
2022-10-11T20:19:42.242Z,0.00
2022-10-11T20:22:10.028Z,0.00
2022-10-11T20:24:37.984Z,0.00
2022-10-11T20:27:06.521Z,0.00
2022-10-11T20:29:34.334Z,0.40
2022-10-11T20:32:02.159Z,0.00
2022-10-11T20:34:30.588Z,0.00
2022-10-11T20:36:58.893Z,0.20
2022-10-11T20:39:26.563Z,0.00
2022-10-11T20:41:54.593Z,0.00
2022-10-11T20:44:22.208Z,1.00
2022-10-11T20:46:50.179Z,0.00
2022-10-11T20:49:20.215Z,0.00
2022-10-11T20:51:48.167Z,0.00
2022-10-11T20:54:16.060Z,1.40
2022-10-11T20:56:44.395Z,0.00
2022-10-11T20:59:12.063Z,0.00
2022-10-11T21:01:40.988Z,0.00
2022-10-11T21:04:16.011Z,1.00
2022-10-11T21:06:43.615Z,0.00
2022-10-11T21:09:15.461Z,1.00
2022-10-11T21:11:44.559Z,0.00
2022-10-11T21:14:12.126Z,1.00
2022-10-11T21:16:39.766Z,0.00
2022-10-11T21:19:07.360Z,0.00
2022-10-11T21:21:35.296Z,0.00
2022-10-11T21:24:03.495Z,0.00
2022-10-11T21:26:31.558Z,0.00
2022-10-11T21:28:59.711Z,0.00
2022-10-11T21:31:31.293Z,0.00
2022-10-11T21:34:00.801Z,0.00
2022-10-11T21:36:28.892Z,0.00
2022-10-11T21:38:56.939Z,0.00
2022-10-11T21:41:26.647Z,1.40
2022-10-11T21:43:54.554Z,0.00
2022-10-11T21:46:41.617Z,0.00
2022-10-11T21:49:13.206Z,0.00
2022-10-11T21:51:40.914Z,0.20
2022-10-11T21:54:08.720Z,0.00
2022-10-11T21:56:36.273Z,0.00
2022-10-11T21:59:06.571Z,0.00
2022-10-11T22:01:37.167Z,0.80
2022-10-11T22:04:07.448Z,0.00
2022-10-11T22:06:36.160Z,0.00
2022-10-11T22:09:05.329Z,1.00
2022-10-11T22:11:33.159Z,0.00
2022-10-11T22:14:00.790Z,0.00
2022-10-11T22:16:28.638Z,1.00
2022-10-11T22:18:56.259Z,0.00
2022-10-11T22:21:24.302Z,0.00
2022-10-11T22:23:53.669Z,0.00
2022-10-11T22:26:24.660Z,0.00
2022-10-11T22:28:53.724Z,0.00
2022-10-11T22:31:22.977Z,0.00
2022-10-11T22:33:58.403Z,0.00
2022-10-11T22:36:27.102Z,0.00
2022-10-11T22:38:55.317Z,0.00
2022-10-11T22:41:23.650Z,0.00
2022-10-11T22:43:51.243Z,0.20
2022-10-11T22:46:18.923Z,0.00
2022-10-11T22:48:46.631Z,0.00
2022-10-11T22:51:15.091Z,0.20
2022-10-11T22:53:42.868Z,0.00
2022-10-11T22:56:11.395Z,0.00
2022-10-11T22:58:39.093Z,0.00
2022-10-11T23:01:08.298Z,0.40
2022-10-11T23:03:35.945Z,0.00
2022-10-11T23:06:03.531Z,0.60
2022-10-11T23:08:31.334Z,0.00
2022-10-11T23:11:06.750Z,0.00
2022-10-11T23:13:34.978Z,0.00
2022-10-11T23:16:10.948Z,0.00
2022-10-11T23:18:38.849Z,0.00
2022-10-11T23:21:07.261Z,0.40
2022-10-11T23:23:35.225Z,0.00
2022-10-11T23:26:12.642Z,1.00
2022-10-11T23:28:40.789Z,0.00
2022-10-11T23:31:12.601Z,0.00
2022-10-11T23:33:40.453Z,0.00
2022-10-11T23:36:18.141Z,0.00
2022-10-11T23:38:49.864Z,0.00
2022-10-11T23:41:17.556Z,0.00
2022-10-11T23:43:45.018Z,0.00
2022-10-11T23:46:12.797Z,0.00
2022-10-11T23:48:40.586Z,0.00
2022-10-11T23:51:08.697Z,0.00
2022-10-11T23:53:37.277Z,0.00
2022-10-11T23:56:05.431Z,0.00
2022-10-11T23:58:33.421Z,0.00
